createdAt,value
2018-03-01T00:01:22.010Z,102638.39
2018-03-01T00:03:57.498Z,102634.93
2018-03-01T00:06:30.059Z,102641.63
2018-03-01T00:08:58.537Z,102636.03
2018-03-01T00:11:27.058Z,102628.30
2018-03-01T00:13:55.606Z,102622.77
2018-03-01T00:16:24.072Z,102609.25
2018-03-01T00:18:52.555Z,102617.75
2018-03-01T00:21:21.146Z,102609.11
2018-03-01T00:23:49.688Z,102612.41
2018-03-01T00:26:18.130Z,102608.69
2018-03-01T00:28:46.723Z,102605.80
2018-03-01T00:31:15.205Z,102603.61
2018-03-01T00:33:43.690Z,102599.05
2018-03-01T00:36:12.244Z,102592.60
2018-03-01T00:38:40.767Z,102593.72
2018-03-01T00:41:09.347Z,102586.58
2018-03-01T00:43:38.311Z,102588.84
2018-03-01T00:46:06.891Z,102587.97
2018-03-01T00:48:35.914Z,102587.72
2018-03-01T00:51:04.562Z,102584.09
2018-03-01T00:53:33.145Z,102588.70
2018-03-01T00:56:01.809Z,102592.37
2018-03-01T00:58:30.564Z,102592.19
2018-03-01T01:00:59.010Z,102577.20
2018-03-01T01:03:27.464Z,102578.09
2018-03-01T01:05:55.967Z,102570.33
2018-03-01T01:08:24.415Z,102570.55
2018-03-01T01:10:52.919Z,102561.38
2018-03-01T01:13:21.535Z,102564.87
2018-03-01T01:15:49.999Z,102554.41
2018-03-01T01:18:18.482Z,102550.22
2018-03-01T01:20:46.990Z,102540.79
2018-03-01T01:23:15.443Z,102542.13
2018-03-01T01:25:44.455Z,102541.91
2018-03-01T01:28:13.256Z,102536.70
2018-03-01T01:30:41.750Z,102530.28
2018-03-01T01:33:10.312Z,102526.64
2018-03-01T01:35:38.855Z,102515.42
2018-03-01T01:38:07.375Z,102510.05
2018-03-01T01:40:35.835Z,102509.27
2018-03-01T01:43:04.641Z,102511.63
2018-03-01T01:45:33.128Z,102500.84
2018-03-01T01:48:01.666Z,102494.86
2018-03-01T01:53:34.337Z,102497.41
2018-03-01T01:56:02.946Z,102482.45
2018-03-01T01:58:31.536Z,102474.07
2018-03-01T02:01:00.043Z,102470.96
2018-03-01T02:03:28.620Z,102471.17
2018-03-01T02:05:57.987Z,102469.15
2018-03-01T02:08:26.573Z,102467.59
2018-03-01T02:10:55.840Z,102463.13
2018-03-01T02:13:24.323Z,102455.19
2018-03-01T02:15:52.908Z,102451.89
2018-03-01T02:18:21.397Z,102449.41
2018-03-01T02:20:49.982Z,102443.59
2018-03-01T02:23:18.869Z,102435.41
2018-03-01T02:25:47.375Z,102429.17
2018-03-01T02:28:15.952Z,102425.12
2018-03-01T02:30:44.491Z,102418.83
2018-03-01T02:33:13.152Z,102410.84
2018-03-01T02:35:41.704Z,102406.22
2018-03-01T02:38:10.259Z,102405.44
2018-03-01T02:40:39.094Z,102404.59
2018-03-01T02:43:07.782Z,102406.56
2018-03-01T02:45:36.414Z,102406.41
2018-03-01T02:48:04.947Z,102398.52
2018-03-01T02:50:33.475Z,102398.44
2018-03-01T02:53:02.951Z,102387.05
2018-03-01T02:55:31.577Z,102384.34
2018-03-01T02:58:00.889Z,102383.80
2018-03-01T03:00:29.392Z,102394.98
2018-03-01T03:02:58.794Z,102392.80
2018-03-01T03:05:27.225Z,102391.05
2018-03-01T03:07:55.661Z,102395.06
2018-03-01T03:10:24.222Z,102393.31
2018-03-01T03:12:52.721Z,102392.90
2018-03-01T03:15:21.181Z,102400.47
2018-03-01T03:17:50.185Z,102407.52
2018-03-01T03:20:18.668Z,102412.16
2018-03-01T03:22:47.149Z,102410.22
2018-03-01T03:25:15.938Z,102408.45
2018-03-01T03:27:44.546Z,102395.50
2018-03-01T03:30:13.003Z,102391.64
2018-03-01T03:32:41.585Z,102389.59
2018-03-01T03:35:10.061Z,102375.22
2018-03-01T03:37:38.523Z,102381.62
2018-03-01T03:40:07.985Z,102383.16
2018-03-01T03:42:36.469Z,102378.04
2018-03-01T03:45:04.974Z,102377.91
2018-03-01T03:47:33.488Z,102373.45
2018-03-01T03:50:02.076Z,102371.55
2018-03-01T03:52:31.489Z,102371.55
2018-03-01T03:55:00.335Z,102368.00
2018-03-01T03:57:28.778Z,102373.20
2018-03-01T03:59:57.268Z,102375.08
2018-03-01T04:02:25.762Z,102364.44
2018-03-01T04:04:54.213Z,102357.14
2018-03-01T04:07:22.674Z,102366.82
2018-03-01T04:09:52.035Z,102356.42
2018-03-01T04:12:20.486Z,102360.75
2018-03-01T04:14:48.945Z,102355.34
2018-03-01T04:17:17.696Z,102361.91
2018-03-01T04:19:46.226Z,102352.63
2018-03-01T04:22:15.568Z,102347.36
2018-03-01T04:24:44.159Z,102347.09
2018-03-01T04:27:12.635Z,102344.05
2018-03-01T04:29:41.115Z,102345.72
2018-03-01T04:32:10.186Z,102341.73
2018-03-01T04:34:38.629Z,102342.89
2018-03-01T04:37:07.065Z,102339.48
2018-03-01T04:39:35.902Z,102340.81
2018-03-01T04:42:04.456Z,102337.49
2018-03-01T04:44:32.913Z,102334.83
2018-03-01T04:47:02.829Z,102324.44
2018-03-01T04:49:31.256Z,102316.30
2018-03-01T04:51:59.695Z,102314.91
2018-03-01T04:54:28.166Z,102309.30
2018-03-01T04:56:56.600Z,102309.81
2018-03-01T04:59:25.044Z,102307.84
2018-03-01T05:01:53.587Z,102316.33
2018-03-01T05:04:22.133Z,102305.97
2018-03-01T05:06:50.627Z,102296.73
2018-03-01T05:09:19.533Z,102298.35
2018-03-01T05:11:48.607Z,102305.97
2018-03-01T05:14:17.048Z,102297.91
2018-03-01T05:16:46.641Z,102298.77
2018-03-01T05:19:15.070Z,102296.81
2018-03-01T05:21:43.545Z,102296.95
2018-03-01T05:24:12.035Z,102290.83
2018-03-01T05:26:40.518Z,102283.75
2018-03-01T05:29:08.997Z,102280.06
2018-03-01T05:31:37.764Z,102282.72
2018-03-01T05:34:06.326Z,102274.88
2018-03-01T05:36:34.760Z,102271.31
2018-03-01T05:39:03.459Z,102265.67
2018-03-01T05:41:31.922Z,102264.94
2018-03-01T05:44:00.420Z,102261.59
2018-03-01T05:46:28.884Z,102268.02
2018-03-01T05:48:57.314Z,102270.22
2018-03-01T05:51:26.401Z,102262.91
2018-03-01T05:53:55.269Z,102266.38
2018-03-01T05:56:23.702Z,102269.12
2018-03-01T05:58:52.104Z,102273.03
2018-03-01T06:01:21.405Z,102270.80
2018-03-01T06:03:49.839Z,102270.61
2018-03-01T06:06:18.385Z,102264.86
2018-03-01T06:08:47.870Z,102262.26
2018-03-01T06:11:16.298Z,102253.74
2018-03-01T06:13:44.730Z,102250.25
2018-03-01T06:16:13.349Z,102259.73
2018-03-01T06:18:41.760Z,102250.51
2018-03-01T06:21:10.318Z,102248.52
2018-03-01T06:23:38.900Z,102238.77
2018-03-01T06:26:07.484Z,102235.23
2018-03-01T06:28:35.935Z,102226.42
2018-03-01T06:31:04.822Z,102236.78
2018-03-01T06:33:33.266Z,102229.08
2018-03-01T06:36:01.848Z,102227.91
2018-03-01T06:38:30.840Z,102229.82
2018-03-01T06:40:59.361Z,102218.81
2018-03-01T06:43:27.870Z,102217.27
2018-03-01T06:45:56.382Z,102203.48
2018-03-01T06:48:24.860Z,102192.22
2018-03-01T06:50:53.313Z,102197.37
2018-03-01T06:53:21.755Z,102203.95
2018-03-01T06:55:51.226Z,102192.23
2018-03-01T06:58:20.225Z,102197.09
2018-03-01T07:00:48.727Z,102194.87
2018-03-01T07:03:17.188Z,102197.02
2018-03-01T07:05:45.624Z,102194.56
2018-03-01T07:08:14.127Z,102187.22
2018-03-01T07:10:42.558Z,102183.95
2018-03-01T07:13:11.004Z,102192.31
2018-03-01T07:15:39.782Z,102181.44
2018-03-01T07:18:08.256Z,102170.91
2018-03-01T07:20:36.765Z,102164.25
2018-03-01T07:23:05.330Z,102165.27
2018-03-01T07:25:33.928Z,102168.74
2018-03-01T07:28:02.410Z,102161.14
2018-03-01T07:30:31.409Z,102156.61
2018-03-01T07:32:59.959Z,102150.53
2018-03-01T07:35:28.376Z,102153.81
2018-03-01T07:37:57.261Z,102149.13
2018-03-01T07:40:25.723Z,102151.70
2018-03-01T07:42:54.214Z,102154.77
2018-03-01T07:45:22.769Z,102138.54
2018-03-01T07:47:51.218Z,102147.91
2018-03-01T07:50:19.782Z,102136.36
2018-03-01T07:52:49.808Z,102141.66
2018-03-01T07:55:18.247Z,102129.30
2018-03-01T07:57:46.661Z,102129.82
2018-03-01T08:00:16.489Z,102134.35
2018-03-01T08:02:44.911Z,102129.34
2018-03-01T08:05:13.343Z,102118.05
2018-03-01T08:07:41.827Z,102121.50
2018-03-01T08:10:10.308Z,102128.12
2018-03-01T08:12:38.844Z,102121.78
2018-03-01T08:15:07.371Z,102122.47
2018-03-01T08:17:35.814Z,102117.11
2018-03-01T08:20:04.351Z,102117.00
2018-03-01T08:22:32.972Z,102116.71
2018-03-01T08:25:01.417Z,102114.72
2018-03-01T08:27:29.938Z,102104.14
2018-03-01T08:29:59.331Z,102101.19
2018-03-01T08:32:27.851Z,102106.41
2018-03-01T08:34:57.006Z,102097.03
2018-03-01T08:37:25.471Z,102094.09
2018-03-01T08:39:54.054Z,102094.66
2018-03-01T08:42:22.466Z,102092.62
2018-03-01T08:44:51.426Z,102090.28
2018-03-01T08:47:19.837Z,102087.47
2018-03-01T08:49:48.338Z,102086.37
2018-03-01T08:52:16.789Z,102076.59
2018-03-01T08:54:45.224Z,102076.44
2018-03-01T08:57:13.712Z,102075.23
2018-03-01T08:59:42.361Z,102074.86
2018-03-01T09:02:10.771Z,102077.48
2018-03-01T09:04:39.485Z,102078.35
2018-03-01T09:07:08.806Z,102072.27
2018-03-01T09:09:37.390Z,102076.22
2018-03-01T09:12:05.927Z,102070.41
2018-03-01T09:14:34.572Z,102064.63
2018-03-01T09:17:03.058Z,102049.40
2018-03-01T09:19:31.832Z,102047.02
2018-03-01T09:22:00.308Z,102047.62
2018-03-01T09:24:28.780Z,102045.88
2018-03-01T09:26:58.333Z,102046.78
2018-03-01T09:29:32.858Z,102050.25
2018-03-01T09:32:01.396Z,102048.30
2018-03-01T09:34:29.841Z,102055.09
2018-03-01T09:36:58.319Z,102048.52
2018-03-01T09:39:26.875Z,102056.36
2018-03-01T09:41:55.359Z,102048.09
2018-03-01T09:44:24.409Z,102062.80
2018-03-01T09:46:52.856Z,102055.47
2018-03-01T09:49:21.309Z,102041.03
2018-03-01T09:51:49.861Z,102032.38
2018-03-01T09:54:18.286Z,102031.92
2018-03-01T09:56:46.724Z,102031.03
2018-03-01T09:59:15.184Z,102020.05
2018-03-01T10:01:43.681Z,102016.59
2018-03-01T10:04:12.109Z,102018.56
2018-03-01T10:06:40.593Z,102012.66
2018-03-01T10:09:09.061Z,102013.51
2018-03-01T10:11:37.558Z,102022.50
2018-03-01T10:14:06.112Z,102013.80
2018-03-01T10:16:34.652Z,102020.51
2018-03-01T10:19:03.590Z,102017.51
2018-03-01T10:21:32.530Z,102014.70
2018-03-01T10:24:01.081Z,102016.13
2018-03-01T10:26:29.539Z,102003.73
2018-03-01T10:28:58.421Z,102013.02
2018-03-01T10:31:26.834Z,102006.81
2018-03-01T10:33:55.278Z,102008.98
2018-03-01T10:36:24.560Z,102004.95
2018-03-01T10:38:53.012Z,101999.97
2018-03-01T10:41:21.535Z,102005.21
2018-03-01T10:43:50.086Z,101998.66
2018-03-01T10:46:18.502Z,101996.33
2018-03-01T10:48:46.926Z,101990.50
2018-03-01T10:51:15.406Z,101985.77
2018-03-01T10:53:43.837Z,101991.44
2018-03-01T10:56:12.251Z,101995.02
2018-03-01T10:58:40.733Z,101972.41
2018-03-01T11:01:14.753Z,101964.95
2018-03-01T11:03:43.872Z,101966.89
2018-03-01T11:06:12.322Z,101959.33
2018-03-01T11:08:40.743Z,101950.56
2018-03-01T11:11:09.297Z,101953.41
2018-03-01T11:13:37.738Z,101957.25
2018-03-01T11:16:06.201Z,101955.62
2018-03-01T11:18:34.697Z,101962.66
2018-03-01T11:21:03.175Z,101950.66
2018-03-01T11:23:31.876Z,101946.25
2018-03-01T11:26:00.429Z,101938.78
2018-03-01T11:28:28.862Z,101941.08
2018-03-01T11:30:58.179Z,101933.66
2018-03-01T11:33:26.639Z,101929.48
2018-03-01T11:35:55.037Z,101917.48
2018-03-01T11:38:23.479Z,101912.48
2018-03-01T11:40:51.928Z,101914.68
2018-03-01T11:43:21.098Z,101903.67
2018-03-01T11:45:49.508Z,101896.30
2018-03-01T11:48:17.985Z,101905.36
2018-03-01T11:50:46.407Z,101911.73
2018-03-01T11:53:14.894Z,101905.55
2018-03-01T11:55:43.368Z,101893.84
2018-03-01T11:58:12.507Z,101889.33
2018-03-01T12:00:41.103Z,101877.41
2018-03-01T12:03:09.670Z,101885.02
2018-03-01T12:05:38.384Z,101871.75
2018-03-01T12:08:06.839Z,101871.28
2018-03-01T12:10:35.463Z,101880.47
2018-03-01T12:13:04.210Z,101881.70
2018-03-01T12:15:32.673Z,101861.16
2018-03-01T12:18:01.814Z,101860.63
2018-03-01T12:20:30.273Z,101862.08
2018-03-01T12:22:58.745Z,101865.69
2018-03-01T12:25:27.261Z,101861.02
2018-03-01T12:27:55.654Z,101844.52
2018-03-01T12:30:24.091Z,101853.55
2018-03-01T12:32:52.644Z,101847.26
2018-03-01T12:35:21.057Z,101855.23
2018-03-01T12:37:49.581Z,101842.92
2018-03-01T12:40:18.052Z,101830.69
2018-03-01T12:42:46.495Z,101841.97
2018-03-01T12:45:14.973Z,101844.06
2018-03-01T12:47:43.732Z,101834.17
2018-03-01T12:50:12.394Z,101832.49
2018-03-01T12:52:40.869Z,101838.58
2018-03-01T12:55:10.030Z,101830.67
2018-03-01T12:57:38.705Z,101830.34
2018-03-01T13:00:07.543Z,101826.87
2018-03-01T13:02:36.907Z,101829.07
2018-03-01T13:05:07.138Z,101819.92
2018-03-01T13:07:35.852Z,101826.03
2018-03-01T13:10:04.803Z,101816.87
2018-03-01T13:12:33.704Z,101814.23
2018-03-01T13:15:02.433Z,101820.79
2018-03-01T13:17:31.994Z,101814.25
2018-03-01T13:20:00.574Z,101809.91
2018-03-01T13:22:29.124Z,101802.03
2018-03-01T13:24:57.727Z,101795.05
2018-03-01T13:27:26.218Z,101782.41
2018-03-01T13:29:54.670Z,101778.39
2018-03-01T13:32:24.706Z,101784.90
2018-03-01T13:35:02.002Z,101775.80
2018-03-01T13:37:31.621Z,101784.56
2018-03-01T13:40:00.203Z,101774.14
2018-03-01T13:42:28.695Z,101785.94
2018-03-01T13:44:57.235Z,101765.45
2018-03-01T13:50:29.494Z,101757.61
2018-03-01T13:52:58.078Z,101756.28
2018-03-01T13:55:26.527Z,101754.12
2018-03-01T13:57:56.674Z,101749.33
2018-03-01T14:00:25.217Z,101748.02
2018-03-01T14:02:53.814Z,101747.59
2018-03-01T14:05:22.296Z,101754.55
2018-03-01T14:07:51.034Z,101755.83
2018-03-01T14:10:19.472Z,101738.34
2018-03-01T14:12:53.620Z,101737.53
2018-03-01T14:15:22.107Z,101735.78
2018-03-01T14:17:54.814Z,101742.77
2018-03-01T14:20:29.441Z,101742.77
2018-03-01T14:22:58.852Z,101735.36
2018-03-01T14:25:30.010Z,101733.17
2018-03-01T14:28:04.518Z,101727.96
2018-03-01T14:30:33.666Z,101721.86
2018-03-01T14:33:02.246Z,101719.27
2018-03-01T14:35:31.799Z,101708.36
2018-03-01T14:38:00.748Z,101721.88
2018-03-01T14:40:29.196Z,101718.83
2018-03-01T14:42:57.754Z,101716.66
2018-03-01T14:45:26.217Z,101714.91
2018-03-01T14:47:54.662Z,101710.55
2018-03-01T14:50:23.244Z,101706.59
2018-03-01T14:52:52.627Z,101710.95
2018-03-01T14:55:21.105Z,101709.23
2018-03-01T14:57:51.482Z,101705.75
2018-03-01T15:00:19.911Z,101695.30
2018-03-01T15:02:48.370Z,101694.44
2018-03-01T15:05:17.584Z,101685.72
2018-03-01T15:07:46.294Z,101692.69
2018-03-01T15:10:14.744Z,101689.22
2018-03-01T15:12:43.424Z,101679.64
2018-03-01T15:15:11.913Z,101683.56
2018-03-01T15:17:40.458Z,101673.09
2018-03-01T15:20:09.320Z,101673.11
2018-03-01T15:22:38.456Z,101670.48
2018-03-01T15:25:07.344Z,101663.94
2018-03-01T15:27:36.552Z,101667.01
2018-03-01T15:30:05.134Z,101656.55
2018-03-01T15:32:33.708Z,101655.67
2018-03-01T15:35:03.621Z,101651.31
2018-03-01T15:37:32.382Z,101657.42
2018-03-01T15:40:00.804Z,101641.30
2018-03-01T15:42:29.285Z,101640.44
2018-03-01T15:44:57.931Z,101646.96
2018-03-01T15:47:26.385Z,101643.06
2018-03-01T15:49:55.283Z,101644.77
2018-03-01T15:52:23.755Z,101638.69
2018-03-01T15:54:52.330Z,101638.72
2018-03-01T15:57:20.912Z,101642.16
2018-03-01T15:59:49.366Z,101643.48
2018-03-01T16:02:17.919Z,101636.09
2018-03-01T16:04:47.372Z,101630.00
2018-03-01T16:07:15.882Z,101629.55
2018-03-01T16:09:44.350Z,101622.13
2018-03-01T16:12:12.913Z,101624.77
2018-03-01T16:14:41.498Z,101613.89
2018-03-01T16:17:10.540Z,101608.22
2018-03-01T16:19:39.550Z,101599.06
2018-03-01T16:22:08.131Z,101599.50
2018-03-01T16:24:36.828Z,101609.09
2018-03-01T16:27:05.541Z,101599.97
2018-03-01T16:29:34.229Z,101599.52
2018-03-01T16:32:02.829Z,101594.28
2018-03-01T16:34:31.838Z,101592.11
2018-03-01T16:37:00.347Z,101593.44
2018-03-01T16:39:28.830Z,101597.76
2018-03-01T16:41:57.659Z,101588.19
2018-03-01T16:44:26.142Z,101582.53
2018-03-01T16:46:54.591Z,101588.63
2018-03-01T16:49:23.108Z,101586.03
2018-03-01T16:51:51.607Z,101588.64
2018-03-01T16:54:20.460Z,101579.04
2018-03-01T16:56:49.252Z,101564.27
2018-03-01T16:59:17.710Z,101562.09
2018-03-01T17:01:46.178Z,101561.22
2018-03-01T17:04:15.718Z,101573.41
2018-03-01T17:06:44.193Z,101574.28
2018-03-01T17:09:12.779Z,101572.55
2018-03-01T17:11:41.813Z,101572.52
2018-03-01T17:14:10.632Z,101574.28
2018-03-01T17:16:39.380Z,101556.85
2018-03-01T17:19:08.162Z,101574.27
2018-03-01T17:21:36.749Z,101564.71
2018-03-01T17:24:05.328Z,101562.54
2018-03-01T17:26:34.067Z,101566.87
2018-03-01T17:29:02.597Z,101553.83
2018-03-01T17:31:31.270Z,101567.73
2018-03-01T17:34:00.625Z,101550.77
2018-03-01T17:36:29.233Z,101552.08
2018-03-01T17:38:57.908Z,101555.58
2018-03-01T17:41:26.480Z,101542.50
2018-03-01T17:43:55.082Z,101550.78
2018-03-01T17:46:23.684Z,101542.48
2018-03-01T17:48:52.347Z,101540.33
2018-03-01T17:51:20.757Z,101543.34
2018-03-01T17:53:49.792Z,101538.13
2018-03-01T17:56:19.373Z,101531.63
2018-03-01T17:58:47.811Z,101520.75
2018-03-01T18:01:16.262Z,101530.30
2018-03-01T18:03:45.105Z,101525.06
2018-03-01T18:06:13.662Z,101522.48
2018-03-01T18:08:42.221Z,101517.27
2018-03-01T18:11:10.779Z,101525.55
2018-03-01T18:13:39.240Z,101518.16
2018-03-01T18:16:08.045Z,101517.71
2018-03-01T18:18:37.729Z,101515.94
2018-03-01T18:21:06.316Z,101504.64
2018-03-01T18:23:35.326Z,101504.66
2018-03-01T18:26:04.772Z,101497.69
2018-03-01T18:28:33.298Z,101499.88
2018-03-01T18:31:01.735Z,101498.56
2018-03-01T18:33:31.393Z,101500.31
2018-03-01T18:35:59.821Z,101498.10
2018-03-01T18:38:28.307Z,101499.42
2018-03-01T18:40:57.547Z,101484.63
2018-03-01T18:43:26.030Z,101490.70
2018-03-01T18:45:54.833Z,101491.61
2018-03-01T18:48:23.300Z,101487.70
2018-03-01T18:50:51.825Z,101480.30
2018-03-01T18:53:20.338Z,101492.46
2018-03-01T18:55:49.167Z,101482.43
2018-03-01T18:58:17.633Z,101480.68
2018-03-01T19:00:46.158Z,101474.63
2018-03-01T19:03:14.749Z,101471.09
2018-03-01T19:05:43.190Z,101466.28
2018-03-01T19:08:11.613Z,101473.72
2018-03-01T19:10:40.385Z,101465.86
2018-03-01T19:13:08.964Z,101471.55
2018-03-01T19:15:37.630Z,101472.41
2018-03-01T19:18:06.558Z,101456.73
2018-03-01T19:20:35.233Z,101458.92
2018-03-01T19:23:03.937Z,101451.97
2018-03-01T19:25:32.698Z,101460.25
2018-03-01T19:28:01.308Z,101458.05
2018-03-01T19:30:29.769Z,101457.19
2018-03-01T19:32:58.347Z,101457.61
2018-03-01T19:35:26.933Z,101460.66
2018-03-01T19:37:55.413Z,101454.99
2018-03-01T19:40:23.995Z,101450.24
2018-03-01T19:42:52.405Z,101454.59
2018-03-01T19:45:20.854Z,101444.16
2018-03-01T19:47:49.438Z,101454.14
2018-03-01T19:50:18.019Z,101453.30
2018-03-01T19:52:46.450Z,101455.02
2018-03-01T19:55:15.185Z,101451.56
2018-03-01T19:57:43.632Z,101448.47
2018-03-01T20:00:12.079Z,101442.00
2018-03-01T20:02:41.252Z,101442.41
2018-03-01T20:05:09.757Z,101444.19
2018-03-01T20:07:38.443Z,101444.64
2018-03-01T20:10:07.269Z,101447.25
2018-03-01T20:12:35.786Z,101446.38
2018-03-01T20:15:04.578Z,101440.28
2018-03-01T20:17:33.568Z,101435.06
2018-03-01T20:20:02.002Z,101435.50
2018-03-01T20:22:30.476Z,101445.50
2018-03-01T20:24:59.272Z,101447.69
2018-03-01T20:27:27.671Z,101435.09
2018-03-01T20:29:56.160Z,101435.94
2018-03-01T20:32:24.689Z,101430.31
2018-03-01T20:34:53.147Z,101427.69
2018-03-01T20:37:27.526Z,101430.31
2018-03-01T20:39:55.975Z,101427.27
2018-03-01T20:42:24.489Z,101434.20
2018-03-01T20:44:53.012Z,101429.02
2018-03-01T20:47:22.528Z,101429.86
2018-03-01T20:49:50.994Z,101425.53
2018-03-01T20:52:21.687Z,101425.08
2018-03-01T20:54:50.520Z,101422.46
2018-03-01T20:57:20.391Z,101420.73
2018-03-01T20:59:48.882Z,101422.02
2018-03-01T21:02:17.330Z,101415.52
2018-03-01T21:04:46.135Z,101412.05
2018-03-01T21:07:15.541Z,101402.92
2018-03-01T21:09:44.135Z,101401.17
2018-03-01T21:12:13.628Z,101399.44
2018-03-01T21:14:42.235Z,101398.57
2018-03-01T21:17:10.742Z,101395.95
2018-03-01T21:19:39.252Z,101397.27
2018-03-01T21:22:07.968Z,101384.20
2018-03-01T21:24:36.643Z,101379.00
2018-03-01T21:27:06.188Z,101382.91
2018-03-01T21:29:34.862Z,101380.72
2018-03-01T21:32:03.711Z,101383.33
2018-03-01T21:34:32.321Z,101383.34
2018-03-01T21:37:01.141Z,101385.95
2018-03-01T21:39:29.993Z,101370.75
2018-03-01T21:41:58.477Z,101373.36
2018-03-01T21:44:27.990Z,101363.78
2018-03-01T21:47:07.507Z,101360.73
2018-03-01T21:49:36.860Z,101345.51
2018-03-01T21:52:05.448Z,101352.91
2018-03-01T21:54:33.987Z,101347.71
2018-03-01T21:57:03.583Z,101341.16
2018-03-01T21:59:32.236Z,101346.35
2018-03-01T22:02:01.306Z,101347.69
2018-03-01T22:04:30.676Z,101336.84
2018-03-01T22:06:59.261Z,101339.82
2018-03-01T22:09:28.100Z,101334.11
2018-03-01T22:11:57.738Z,101334.16
2018-03-01T22:14:26.314Z,101331.56
2018-03-01T22:16:54.801Z,101332.45
2018-03-01T22:19:23.607Z,101330.73
2018-03-01T22:21:52.065Z,101323.33
2018-03-01T22:24:20.536Z,101327.26
2018-03-01T22:26:50.038Z,101308.53
2018-03-01T22:29:18.480Z,101311.58
2018-03-01T22:31:46.916Z,101310.30
2018-03-01T22:34:15.498Z,101307.25
2018-03-01T22:36:43.977Z,101313.72
2018-03-01T22:39:13.419Z,101311.13
2018-03-01T22:41:42.125Z,101308.95
2018-03-01T22:44:10.671Z,101302.41
2018-03-01T22:46:39.241Z,101302.88
2018-03-01T22:49:09.383Z,101296.36
2018-03-01T22:51:37.819Z,101292.02
2018-03-01T22:54:06.345Z,101301.13
2018-03-01T22:56:34.886Z,101298.50
2018-03-01T22:59:03.431Z,101303.25
2018-03-01T23:01:31.953Z,101300.68
2018-03-01T23:04:00.549Z,101302.88
2018-03-01T23:06:29.016Z,101305.05
2018-03-01T23:08:57.432Z,101302.05
2018-03-01T23:11:27.729Z,101301.59
2018-03-01T23:13:56.470Z,101310.26
2018-03-01T23:16:25.007Z,101310.27
2018-03-01T23:18:54.179Z,101308.56
2018-03-01T23:21:22.786Z,101305.08
2018-03-01T23:23:51.301Z,101312.47
2018-03-01T23:26:20.181Z,101310.30
2018-03-01T23:28:48.672Z,101314.23
2018-03-01T23:31:17.150Z,101313.81
2018-03-01T23:33:45.809Z,101311.63
2018-03-01T23:36:14.525Z,101312.53
2018-03-01T23:38:44.461Z,101305.56
2018-03-01T23:41:13.687Z,101298.61
2018-03-01T23:43:42.266Z,101299.48
2018-03-01T23:46:12.239Z,101301.22
2018-03-01T23:48:45.756Z,101301.66
2018-03-01T23:51:14.277Z,101299.50
2018-03-01T23:53:43.657Z,101294.73
2018-03-01T23:56:12.148Z,101298.19
2018-03-01T23:58:40.580Z,101302.11
